Time;durP1;ratioP1;P1;durP2;ratioP2;P2;SDS_P1;SDS_P2;PMS_P1;PMS_P2;Temp;Humidity;BMP_temperature;BMP_pressure;BME280_temperature;BME280_humidity;BME280_pressure;Samples;Min_cycle;Max_cycle;Signal;HPM_P1;HPM_P2
2023/10/26 00:00:28;;;;;;;44.17;22.63;;;;;;;;;;5014939;28;20222;-82
2023/10/26 00:02:54;;;;;;;41.90;22.23;;;;;;;;;;5015391;28;20600;-82
2023/10/26 00:05:20;;;;;;;37.67;19.52;;;;;;;;;;5016275;28;20403;-81
2023/10/26 00:07:46;;;;;;;37.05;20.13;;;;;;;;;;5016593;28;20646;-81
2023/10/26 00:10:12;;;;;;;43.28;25.65;;;;;;;;;;5031735;28;20206;-82
2023/10/26 00:12:38;;;;;;;37.27;20.87;;;;;;;;;;5016472;28;20179;-81
2023/10/26 00:15:04;;;;;;;37.07;22.13;;;;;;;;;;5016797;28;20436;-82
2023/10/26 00:17:30;;;;;;;37.88;21.90;;;;;;;;;;5015342;28;20406;-82
2023/10/26 00:19:56;;;;;;;40.80;22.90;;;;;;;;;;5015266;28;20683;-82
2023/10/26 00:22:23;;;;;;;44.30;20.77;;;;;;;;;;5023079;28;20495;-82
2023/10/26 00:24:49;;;;;;;35.03;23.98;;;;;;;;;;5034560;28;20429;-81
2023/10/26 00:27:15;;;;;;;34.95;21.08;;;;;;;;;;5018269;28;20189;-82
2023/10/26 00:29:41;;;;;;;40.42;21.77;;;;;;;;;;5035968;28;20252;-82
2023/10/26 00:32:07;;;;;;;33.80;21.13;;;;;;;;;;5035874;28;20605;-82
2023/10/26 00:34:34;;;;;;;38.10;21.77;;;;;;;;;;5035896;28;20404;-82
2023/10/26 00:37:00;;;;;;;39.88;23.50;;;;;;;;;;5034663;28;20179;-81
2023/10/26 00:39:26;;;;;;;39.75;21.77;;;;;;;;;;5035650;28;20202;-82
2023/10/26 00:41:52;;;;;;;37.37;22.50;;;;;;;;;;5035698;28;20644;-82
2023/10/26 00:44:18;;;;;;;42.03;24.98;;;;;;;;;;5034494;28;20761;-82
2023/10/26 00:46:45;;;;;;;48.90;25.20;;;;;;;;;;5018174;28;20182;-82
2023/10/26 00:49:12;;;;;;;41.28;22.30;;;;;;;;;;5035945;28;20209;-82
2023/10/26 00:51:41;;;;;;;48.78;25.25;;;;;;;;;;5035396;28;20178;-82
2023/10/26 00:54:08;;;;;;;43.75;24.58;;;;;;;;;;5033953;28;20178;-82
2023/10/26 00:56:35;;;;;;;42.80;23.80;;;;;;;;;;5033757;28;20181;-82
2023/10/26 00:59:03;;;;;;;49.08;23.25;;;;;;;;;;5034031;28;20197;-82
2023/10/26 01:01:30;;;;;;;47.88;25.58;;;;;;;;;;5035137;28;20700;-82
2023/10/26 01:03:57;;;;;;;44.72;22.27;;;;;;;;;;5034324;28;20206;-82
2023/10/26 01:06:23;;;;;;;54.70;27.85;;;;;;;;;;5042014;28;20180;-82
2023/10/26 01:08:49;;;;;;;44.80;23.88;;;;;;;;;;5037814;28;20196;-82
2023/10/26 01:11:16;;;;;;;50.05;25.63;;;;;;;;;;5050608;28;20190;-82
2023/10/26 01:13:42;;;;;;;50.50;25.42;;;;;;;;;;5034061;28;20178;-82
2023/10/26 01:16:08;;;;;;;51.30;26.23;;;;;;;;;;5035403;28;20162;-82
2023/10/26 01:18:34;;;;;;;48.03;22.80;;;;;;;;;;5033567;28;20243;-82
2023/10/26 01:21:00;;;;;;;45.47;26.00;;;;;;;;;;5033923;28;20468;-82
2023/10/26 01:23:26;;;;;;;43.70;25.07;;;;;;;;;;5041973;28;20794;-82
2023/10/26 01:25:53;;;;;;;46.47;24.73;;;;;;;;;;5054808;28;20409;-81
2023/10/26 01:28:19;;;;;;;49.05;25.83;;;;;;;;;;5049601;28;20448;-81
2023/10/26 01:30:44;;;;;;;43.93;25.73;;;;;;;;;;5034163;28;20220;-82
2023/10/26 01:33:10;;;;;;;47.40;25.00;;;;;;;;;;5034992;28;20397;-82
2023/10/26 01:35:38;;;;;;;49.27;27.30;;;;;;;;;;5035134;28;20880;-82
2023/10/26 01:38:04;;;;;;;46.83;25.98;;;;;;;;;;5040323;28;20449;-82
2023/10/26 01:40:30;;;;;;;51.95;25.33;;;;;;;;;;5053538;28;20173;-82
2023/10/26 01:42:56;;;;;;;52.53;26.33;;;;;;;;;;5053594;28;20572;-82
2023/10/26 01:45:22;;;;;;;46.00;25.80;;;;;;;;;;5036963;28;20427;-82
2023/10/26 01:47:48;;;;;;;46.27;24.37;;;;;;;;;;5054274;28;21012;-82
2023/10/26 01:50:14;;;;;;;44.13;24.47;;;;;;;;;;5053214;28;20411;-82
2023/10/26 01:52:40;;;;;;;49.85;25.67;;;;;;;;;;5054845;28;20490;-82
2023/10/26 01:55:06;;;;;;;55.03;28.13;;;;;;;;;;5053780;28;20193;-82
2023/10/26 01:57:32;;;;;;;52.85;27.38;;;;;;;;;;5054789;28;20252;-82
2023/10/26 01:59:59;;;;;;;51.60;27.33;;;;;;;;;;5054275;28;20594;-82
2023/10/26 02:02:25;;;;;;;52.92;27.77;;;;;;;;;;5054435;28;20538;-82
2023/10/26 02:04:51;;;;;;;50.58;27.02;;;;;;;;;;5056026;28;20209;-82
2023/10/26 02:07:17;;;;;;;56.28;29.73;;;;;;;;;;5056570;28;20173;-82
2023/10/26 02:09:43;;;;;;;50.00;26.20;;;;;;;;;;5056896;28;20181;-82
2023/10/26 02:12:09;;;;;;;56.30;26.70;;;;;;;;;;5058123;28;20420;-82
2023/10/26 02:14:35;;;;;;;51.43;26.20;;;;;;;;;;5057986;28;20408;-82
2023/10/26 02:17:01;;;;;;;42.15;23.60;;;;;;;;;;5057928;28;20397;-82
2023/10/26 02:19:27;;;;;;;46.25;23.70;;;;;;;;;;5056521;28;20181;-82
2023/10/26 02:21:53;;;;;;;52.57;24.00;;;;;;;;;;5023723;28;20204;-81
2023/10/26 02:24:19;;;;;;;48.73;22.63;;;;;;;;;;5036685;28;20893;-82
2023/10/26 02:26:45;;;;;;;47.60;24.97;;;;;;;;;;5036438;28;20424;-82
2023/10/26 02:29:11;;;;;;;53.20;27.17;;;;;;;;;;5036903;28;20495;-82
2023/10/26 02:31:36;;;;;;;49.00;25.23;;;;;;;;;;5019557;28;20439;-82
2023/10/26 02:34:02;;;;;;;52.30;26.33;;;;;;;;;;5054000;28;20507;-83
2023/10/26 02:36:29;;;;;;;53.85;27.20;;;;;;;;;;5055893;28;20402;-82
2023/10/26 02:38:54;;;;;;;57.08;26.70;;;;;;;;;;5057489;28;20162;-82
2023/10/26 02:41:20;;;;;;;59.13;29.50;;;;;;;;;;5056304;28;20189;-83
2023/10/26 02:43:46;;;;;;;56.45;27.33;;;;;;;;;;5056167;28;20412;-83
2023/10/26 02:46:13;;;;;;;57.47;28.23;;;;;;;;;;5057052;28;20260;-83
2023/10/26 02:48:39;;;;;;;62.13;30.50;;;;;;;;;;5055707;28;20208;-83
2023/10/26 02:51:05;;;;;;;63.57;30.27;;;;;;;;;;5057276;28;20174;-82
2023/10/26 02:53:32;;;;;;;66.20;30.08;;;;;;;;;;5056831;28;20404;-83
2023/10/26 02:55:58;;;;;;;62.42;30.52;;;;;;;;;;5047411;28;20172;-83
2023/10/26 02:58:24;;;;;;;63.10;30.10;;;;;;;;;;5037289;28;20213;-83
2023/10/26 03:00:50;;;;;;;65.83;32.30;;;;;;;;;;5035770;28;20559;-83
2023/10/26 03:03:16;;;;;;;65.93;30.08;;;;;;;;;;5025178;28;20948;-83
2023/10/26 03:05:42;;;;;;;64.27;29.70;;;;;;;;;;5019056;28;20214;-83
2023/10/26 03:08:08;;;;;;;59.00;30.80;;;;;;;;;;5035643;28;20954;-82
2023/10/26 03:10:34;;;;;;;64.72;29.92;;;;;;;;;;5037128;28;20527;-82
2023/10/26 03:13:00;;;;;;;67.97;30.37;;;;;;;;;;5035720;28;20185;-82
2023/10/26 03:15:26;;;;;;;60.78;29.17;;;;;;;;;;5035546;28;20717;-83
2023/10/26 03:17:52;;;;;;;58.33;29.10;;;;;;;;;;5036527;28;20193;-83
2023/10/26 03:20:18;;;;;;;58.17;30.20;;;;;;;;;;5036203;28;20885;-83
2023/10/26 03:22:44;;;;;;;55.03;29.03;;;;;;;;;;5048843;28;20847;-83
2023/10/26 03:25:13;;;;;;;54.27;30.17;;;;;;;;;;5044424;28;20424;-83
2023/10/26 03:27:39;;;;;;;50.95;28.92;;;;;;;;;;5035231;28;20412;-83
2023/10/26 03:30:07;;;;;;;54.53;29.35;;;;;;;;;;5036586;28;20258;-83
2023/10/26 03:32:33;;;;;;;55.83;30.40;;;;;;;;;;5034812;28;20646;-83
2023/10/26 03:35:00;;;;;;;54.58;30.20;;;;;;;;;;5036286;28;20174;-83
2023/10/26 03:37:27;;;;;;;58.95;30.20;;;;;;;;;;5034589;28;20174;-83
2023/10/26 03:39:53;;;;;;;55.13;30.42;;;;;;;;;;5035203;28;20190;-83
2023/10/26 03:42:19;;;;;;;61.63;32.40;;;;;;;;;;5015266;28;20211;-83
2023/10/26 03:44:45;;;;;;;65.60;30.88;;;;;;;;;;5014870;28;20182;-84
2023/10/26 03:47:11;;;;;;;59.70;31.98;;;;;;;;;;5016080;28;20507;-84
2023/10/26 03:49:37;;;;;;;65.80;32.53;;;;;;;;;;5014602;28;20681;-81
2023/10/26 03:52:03;;;;;;;62.78;31.65;;;;;;;;;;5014622;28;20210;-83
2023/10/26 03:54:29;;;;;;;62.42;30.60;;;;;;;;;;5014991;28;20525;-84
2023/10/26 03:56:55;;;;;;;59.53;32.17;;;;;;;;;;5014809;28;20183;-83
2023/10/26 03:59:21;;;;;;;61.60;32.67;;;;;;;;;;5015866;28;20825;-84
2023/10/26 04:01:47;;;;;;;60.63;34.30;;;;;;;;;;5015938;28;20477;-83
2023/10/26 04:04:13;;;;;;;67.13;34.13;;;;;;;;;;5014565;28;20425;-83
2023/10/26 04:06:39;;;;;;;65.47;35.70;;;;;;;;;;5014405;28;20409;-84
2023/10/26 04:09:05;;;;;;;62.30;34.75;;;;;;;;;;5031197;28;20894;-84
2023/10/26 04:11:31;;;;;;;65.47;32.70;;;;;;;;;;5015504;28;20179;-84
2023/10/26 04:13:57;;;;;;;60.23;32.30;;;;;;;;;;5015864;28;20480;-83
2023/10/26 04:16:24;;;;;;;57.95;32.35;;;;;;;;;;5022333;28;20572;-83
2023/10/26 04:18:50;;;;;;;56.35;29.60;;;;;;;;;;5035673;28;20181;-84
2023/10/26 04:21:16;;;;;;;59.60;33.40;;;;;;;;;;5052215;28;20209;-84
2023/10/26 04:23:42;;;;;;;56.50;30.60;;;;;;;;;;5037529;28;20409;-83
2023/10/26 04:26:12;;;;;;;47.53;27.73;;;;;;;;;;5034114;28;20409;-83
2023/10/26 04:28:39;;;;;;;50.35;26.70;;;;;;;;;;5034532;28;20400;-83
2023/10/26 04:31:05;;;;;;;44.75;24.63;;;;;;;;;;5034207;28;20240;-83
2023/10/26 04:33:31;;;;;;;42.92;24.70;;;;;;;;;;5050597;28;20209;-84
2023/10/26 04:36:06;;;;;;;48.13;25.23;;;;;;;;;;5054915;28;20162;-83
2023/10/26 04:38:32;;;;;;;40.67;23.33;;;;;;;;;;5054770;28;20149;-84
2023/10/26 04:40:59;;;;;;;45.20;22.20;;;;;;;;;;5054937;28;20166;-83
2023/10/26 04:43:25;;;;;;;40.85;24.33;;;;;;;;;;5040100;28;20178;-84
2023/10/26 04:45:51;;;;;;;43.63;22.85;;;;;;;;;;5033735;28;20216;-83
2023/10/26 04:48:17;;;;;;;38.20;22.73;;;;;;;;;;5034510;28;20167;-83
2023/10/26 04:50:43;;;;;;;37.57;21.67;;;;;;;;;;5018268;28;20841;-83
2023/10/26 04:53:10;;;;;;;36.35;21.55;;;;;;;;;;5053552;28;20411;-83
2023/10/26 04:55:36;;;;;;;39.83;22.65;;;;;;;;;;5054504;28;20221;-83
2023/10/26 04:58:03;;;;;;;35.40;22.17;;;;;;;;;;5053410;28;20178;-83
2023/10/26 05:00:29;;;;;;;42.65;22.83;;;;;;;;;;5052913;28;20227;-84
2023/10/26 05:02:55;;;;;;;38.80;23.15;;;;;;;;;;5054469;28;20193;-83
2023/10/26 05:05:22;;;;;;;38.30;22.57;;;;;;;;;;5054614;28;20256;-84
2023/10/26 05:07:47;;;;;;;34.33;21.20;;;;;;;;;;5052996;28;20740;-84
2023/10/26 05:10:14;;;;;;;36.60;22.40;;;;;;;;;;5054343;28;20256;-83
2023/10/26 05:12:40;;;;;;;41.40;22.63;;;;;;;;;;5052853;28;20482;-83
2023/10/26 05:15:06;;;;;;;39.67;21.05;;;;;;;;;;5053066;28;20173;-81
2023/10/26 05:17:32;;;;;;;32.78;19.52;;;;;;;;;;5052770;28;20187;-83
2023/10/26 05:19:58;;;;;;;37.80;19.93;;;;;;;;;;5054857;28;20174;-84
2023/10/26 05:22:24;;;;;;;34.13;20.83;;;;;;;;;;5041547;28;20456;-82
2023/10/26 05:24:50;;;;;;;38.70;21.57;;;;;;;;;;5032875;28;20178;-81
2023/10/26 05:27:16;;;;;;;33.07;18.67;;;;;;;;;;5033054;28;20439;-81
2023/10/26 05:29:43;;;;;;;35.47;19.95;;;;;;;;;;5016447;28;20419;-82
2023/10/26 05:32:09;;;;;;;31.70;20.20;;;;;;;;;;5016654;28;20189;-82
2023/10/26 05:34:35;;;;;;;33.10;18.80;;;;;;;;;;5032309;28;20186;-82
2023/10/26 05:37:01;;;;;;;34.97;20.60;;;;;;;;;;5039837;28;20447;-82
2023/10/26 05:39:27;;;;;;;34.23;19.80;;;;;;;;;;5056826;28;20403;-82
2023/10/26 05:41:53;;;;;;;34.33;19.67;;;;;;;;;;5057782;28;20511;-82
2023/10/26 05:44:18;;;;;;;34.33;20.90;;;;;;;;;;5040166;28;20757;-82
2023/10/26 05:46:44;;;;;;;35.93;20.13;;;;;;;;;;5040038;28;20418;-82
2023/10/26 05:49:10;;;;;;;33.10;20.33;;;;;;;;;;5057628;28;20395;-82
2023/10/26 05:51:37;;;;;;;31.10;19.08;;;;;;;;;;5056399;28;20412;-82
2023/10/26 05:54:03;;;;;;;31.17;18.90;;;;;;;;;;5057894;28;20248;-84
2023/10/26 05:56:29;;;;;;;32.22;19.35;;;;;;;;;;5039713;28;20978;-82
2023/10/26 05:58:55;;;;;;;29.53;18.93;;;;;;;;;;5056541;28;20272;-82
2023/10/26 06:01:21;;;;;;;31.53;19.40;;;;;;;;;;5055833;28;20990;-82
2023/10/26 06:03:47;;;;;;;30.05;19.13;;;;;;;;;;5057566;28;20395;-83
2023/10/26 06:06:13;;;;;;;33.93;20.17;;;;;;;;;;5056213;28;20190;-82
2023/10/26 06:08:39;;;;;;;30.55;18.83;;;;;;;;;;5039445;28;20416;-82
2023/10/26 06:11:05;;;;;;;30.20;18.47;;;;;;;;;;5056714;28;20180;-82
2023/10/26 06:13:31;;;;;;;30.30;20.08;;;;;;;;;;5029946;28;20417;-82
2023/10/26 06:15:57;;;;;;;35.47;19.88;;;;;;;;;;5036103;28;20177;-82
2023/10/26 06:18:23;;;;;;;31.60;18.47;;;;;;;;;;5036111;28;20178;-82
2023/10/26 06:21:07;;;;;;;34.33;19.10;;;;;;;;;;5035977;28;20417;-82
2023/10/26 06:23:33;;;;;;;36.58;20.02;;;;;;;;;;5037430;28;20405;-84
2023/10/26 06:26:00;;;;;;;29.77;18.30;;;;;;;;;;5037065;28;20224;-82
2023/10/26 06:28:27;;;;;;;30.23;18.83;;;;;;;;;;5035828;28;20747;-82
2023/10/26 06:30:53;;;;;;;28.25;17.30;;;;;;;;;;5037117;28;20231;-82
2023/10/26 06:33:19;;;;;;;30.38;18.95;;;;;;;;;;5037110;28;20174;-82
2023/10/26 06:35:45;;;;;;;35.13;21.90;;;;;;;;;;5035587;28;20273;-82
2023/10/26 06:38:11;;;;;;;32.42;20.30;;;;;;;;;;5052129;28;20170;-82
2023/10/26 06:40:37;;;;;;;35.45;21.85;;;;;;;;;;5035640;28;20178;-82
2023/10/26 06:43:04;;;;;;;28.60;17.75;;;;;;;;;;5037715;28;20212;-80
2023/10/26 06:45:30;;;;;;;31.33;18.95;;;;;;;;;;5051114;28;20244;-80
2023/10/26 06:47:56;;;;;;;31.25;20.20;;;;;;;;;;5057582;28;20497;-79
2023/10/26 06:50:23;;;;;;;31.77;18.80;;;;;;;;;;5057193;28;20253;-79
2023/10/26 06:52:49;;;;;;;32.40;20.20;;;;;;;;;;5056137;28;20453;-80
2023/10/26 06:55:16;;;;;;;31.15;19.63;;;;;;;;;;5057276;28;20176;-79
2023/10/26 06:57:42;;;;;;;33.13;20.85;;;;;;;;;;5039832;28;20231;-80
2023/10/26 07:00:08;;;;;;;32.83;22.77;;;;;;;;;;5055948;28;20644;-80
2023/10/26 07:02:34;;;;;;;39.00;23.75;;;;;;;;;;5056738;28;20696;-80
2023/10/26 07:05:00;;;;;;;33.45;20.90;;;;;;;;;;5039534;28;20189;-80
2023/10/26 07:07:27;;;;;;;34.50;21.92;;;;;;;;;;5044487;28;20182;-80
2023/10/26 07:09:53;;;;;;;33.20;20.45;;;;;;;;;;5036094;28;20196;-81
2023/10/26 07:12:19;;;;;;;36.42;20.38;;;;;;;;;;5019785;28;20284;-80
2023/10/26 07:14:45;;;;;;;32.40;20.90;;;;;;;;;;5035944;28;20178;-80
2023/10/26 07:17:11;;;;;;;29.33;18.63;;;;;;;;;;5050481;28;20702;-82
2023/10/26 07:19:38;;;;;;;28.30;18.53;;;;;;;;;;5055512;28;20208;-80
2023/10/26 07:22:04;;;;;;;29.38;19.00;;;;;;;;;;5039275;28;20466;-79
2023/10/26 07:24:30;;;;;;;35.45;20.80;;;;;;;;;;5055165;28;20181;-80
2023/10/26 07:26:56;;;;;;;32.42;20.20;;;;;;;;;;5055167;28;20169;-80
2023/10/26 07:29:22;;;;;;;30.85;19.02;;;;;;;;;;5055391;28;20180;-80
2023/10/26 07:31:48;;;;;;;36.17;19.87;;;;;;;;;;5054893;28;20527;-82
2023/10/26 07:34:14;;;;;;;30.47;18.37;;;;;;;;;;5055306;28;20411;-82
2023/10/26 07:36:40;;;;;;;31.17;19.00;;;;;;;;;;5038556;28;20518;-82
2023/10/26 07:39:06;;;;;;;31.40;19.97;;;;;;;;;;5055611;28;20400;-82
2023/10/26 07:41:32;;;;;;;31.50;20.53;;;;;;;;;;5055464;28;20803;-82
2023/10/26 07:43:58;;;;;;;35.13;22.33;;;;;;;;;;5055174;28;20485;-82
2023/10/26 07:46:24;;;;;;;32.35;20.98;;;;;;;;;;5055322;28;20434;-82
2023/10/26 07:48:50;;;;;;;33.87;21.27;;;;;;;;;;5026473;28;20190;-82
2023/10/26 07:51:16;;;;;;;35.67;22.90;;;;;;;;;;5035215;28;20405;-82
2023/10/26 07:53:42;;;;;;;39.93;23.97;;;;;;;;;;5034762;28;20409;-82
2023/10/26 07:56:08;;;;;;;41.50;25.70;;;;;;;;;;5018414;28;20417;-82
2023/10/26 07:58:34;;;;;;;40.33;23.10;;;;;;;;;;5019027;28;20417;-82
2023/10/26 08:01:00;;;;;;;38.97;25.20;;;;;;;;;;5047643;28;20229;-82
2023/10/26 08:03:27;;;;;;;34.67;24.17;;;;;;;;;;5037488;28;20474;-82
2023/10/26 08:05:57;;;;;;;43.65;24.80;;;;;;;;;;5056085;28;20548;-82
2023/10/26 08:08:23;;;;;;;36.95;24.15;;;;;;;;;;5055770;28;20162;-81
2023/10/26 08:10:49;;;;;;;32.75;21.67;;;;;;;;;;5054711;28;20189;-82
2023/10/26 08:13:15;;;;;;;35.10;24.08;;;;;;;;;;5056147;28;20256;-82
2023/10/26 08:15:43;;;;;;;35.90;24.17;;;;;;;;;;5054155;28;20231;-80
2023/10/26 08:18:09;;;;;;;38.22;24.17;;;;;;;;;;5055756;28;20169;-82
2023/10/26 08:20:35;;;;;;;30.27;22.95;;;;;;;;;;5055397;28;20192;-81
2023/10/26 08:23:03;;;;;;;39.70;25.10;;;;;;;;;;5054395;28;20201;-82
2023/10/26 08:25:29;;;;;;;32.70;21.83;;;;;;;;;;5055424;28;20729;-80
2023/10/26 08:27:55;;;;;;;34.73;23.17;;;;;;;;;;5053979;28;20200;-82
2023/10/26 08:30:21;;;;;;;32.90;21.63;;;;;;;;;;5053961;28;20443;-81
2023/10/26 08:32:49;;;;;;;31.88;20.85;;;;;;;;;;5053824;28;20448;-82
2023/10/26 08:35:15;;;;;;;31.65;21.80;;;;;;;;;;5054892;28;20173;-82
2023/10/26 08:37:41;;;;;;;28.40;21.55;;;;;;;;;;5055063;28;20208;-82
2023/10/26 08:40:14;;;;;;;27.13;20.10;;;;;;;;;;5054299;28;20625;-81
2023/10/26 08:42:40;;;;;;;26.52;19.95;;;;;;;;;;5054877;28;20509;-81
2023/10/26 08:45:11;;;;;;;31.05;21.30;;;;;;;;;;5037565;28;20182;-81
2023/10/26 08:47:37;;;;;;;28.77;20.13;;;;;;;;;;5053752;28;20518;-82
2023/10/26 08:50:04;;;;;;;25.67;18.75;;;;;;;;;;5053696;28;20169;-82
2023/10/26 08:52:30;;;;;;;25.35;20.65;;;;;;;;;;5053658;28;20226;-82
2023/10/26 08:54:56;;;;;;;28.08;19.75;;;;;;;;;;5053414;28;20238;-82
2023/10/26 08:57:22;;;;;;;30.13;21.60;;;;;;;;;;5034076;28;20182;-82
2023/10/26 08:59:48;;;;;;;27.87;21.67;;;;;;;;;;5033151;28;20185;-82
2023/10/26 09:02:14;;;;;;;24.33;19.33;;;;;;;;;;5033302;28;20577;-82
2023/10/26 09:05:00;;;;;;;26.23;21.25;;;;;;;;;;5033201;28;20413;-82
2023/10/26 09:07:26;;;;;;;26.77;20.63;;;;;;;;;;5033673;28;20550;-80
2023/10/26 09:09:52;;;;;;;26.10;20.65;;;;;;;;;;5033252;28;20269;-82
2023/10/26 09:12:18;;;;;;;27.10;19.30;;;;;;;;;;5034505;28;20653;-81
2023/10/26 09:14:57;;;;;;;28.30;19.17;;;;;;;;;;5033036;28;20408;-82
2023/10/26 09:17:27;;;;;;;26.50;18.88;;;;;;;;;;5033458;28;20825;-82
2023/10/26 09:19:53;;;;;;;23.67;18.95;;;;;;;;;;5034192;28;20637;-82
2023/10/26 09:22:34;;;;;;;23.00;18.40;;;;;;;;;;5033077;28;20237;-82
2023/10/26 09:25:10;;;;;;;27.83;20.00;;;;;;;;;;5034596;28;20249;-82
2023/10/26 09:27:36;;;;;;;25.48;19.60;;;;;;;;;;5034246;28;20491;-82
2023/10/26 09:30:03;;;;;;;24.10;17.35;;;;;;;;;;5032689;28;20182;-82
2023/10/26 09:32:36;;;;;;;22.88;18.25;;;;;;;;;;5033286;28;20181;-82
2023/10/26 09:35:03;;;;;;;19.63;15.73;;;;;;;;;;5032877;28;20713;-82
2023/10/26 09:37:29;;;;;;;22.50;18.10;;;;;;;;;;5034504;28;20166;-82
2023/10/26 09:39:56;;;;;;;20.77;14.40;;;;;;;;;;5033119;28;20685;-82
2023/10/26 09:42:23;;;;;;;26.93;17.80;;;;;;;;;;5034419;28;20194;-82
2023/10/26 09:44:48;;;;;;;23.00;14.70;;;;;;;;;;5049506;28;20550;-82
2023/10/26 09:47:15;;;;;;;15.60;13.27;;;;;;;;;;5034608;28;20435;-82
2023/10/26 09:49:41;;;;;;;17.00;13.53;;;;;;;;;;5049333;28;20411;-82
2023/10/26 09:52:07;;;;;;;13.80;12.13;;;;;;;;;;5032567;28;20456;-82
2023/10/26 09:54:35;;;;;;;14.13;11.07;;;;;;;;;;5032465;28;20470;-80
2023/10/26 09:57:04;;;;;;;13.30;11.50;;;;;;;;;;5032297;28;20409;-80
2023/10/26 09:59:31;;;;;;;10.20;9.13;;;;;;;;;;5033748;28;20440;-80
2023/10/26 10:01:57;;;;;;;11.60;8.70;;;;;;;;;;5033957;28;20516;-81
2023/10/26 10:04:40;;;;;;;10.43;9.33;;;;;;;;;;5032368;28;20447;-81
2023/10/26 10:07:06;;;;;;;11.70;9.67;;;;;;;;;;5033652;28;20427;-80
2023/10/26 10:09:32;;;;;;;7.87;6.50;;;;;;;;;;5033904;28;20401;-81
2023/10/26 10:12:04;;;;;;;9.37;8.47;;;;;;;;;;5033422;28;20484;-80
2023/10/26 10:14:51;;;;;;;8.07;7.13;;;;;;;;;;5032419;28;20443;-81
2023/10/26 10:17:21;;;;;;;7.70;6.90;;;;;;;;;;5033921;28;20492;-81
2023/10/26 10:19:48;;;;;;;6.53;5.73;;;;;;;;;;5032208;28;20413;-81
2023/10/26 10:22:29;;;;;;;5.67;5.07;;;;;;;;;;5032137;28;20460;-81
2023/10/26 10:24:55;;;;;;;4.17;3.50;;;;;;;;;;5033735;28;20412;-81
2023/10/26 10:27:21;;;;;;;3.73;3.20;;;;;;;;;;5037321;28;20413;-81
2023/10/26 10:29:47;;;;;;;3.20;3.00;;;;;;;;;;5019251;28;21005;-81
2023/10/26 10:32:33;;;;;;;2.97;2.73;;;;;;;;;;5035688;28;20448;-80
2023/10/26 10:35:04;;;;;;;3.57;3.27;;;;;;;;;;5035641;28;20382;-80
2023/10/26 10:37:30;;;;;;;2.20;2.00;;;;;;;;;;5054788;28;20452;-81
2023/10/26 10:40:16;;;;;;;5.63;2.57;;;;;;;;;;5036646;28;20912;-81
2023/10/26 10:42:49;;;;;;;2.50;2.27;;;;;;;;;;5035220;28;20460;-81
2023/10/26 10:45:16;;;;;;;2.13;2.03;;;;;;;;;;5035188;28;20511;-81
2023/10/26 10:47:42;;;;;;;1.60;1.50;;;;;;;;;;5035407;28;20474;-81
2023/10/26 10:50:22;;;;;;;2.67;2.47;;;;;;;;;;5035557;28;20408;-80
2023/10/26 10:52:48;;;;;;;2.90;2.33;;;;;;;;;;5036190;28;20451;-80
2023/10/26 10:55:19;;;;;;;2.57;2.37;;;;;;;;;;5035378;28;20413;-81
2023/10/26 10:57:53;;;;;;;2.07;1.87;;;;;;;;;;5035249;28;20401;-81
2023/10/26 11:00:19;;;;;;;2.37;2.17;;;;;;;;;;5034418;28;20552;-80
2023/10/26 11:02:49;;;;;;;3.13;2.20;;;;;;;;;;5042330;28;20967;-81
2023/10/26 11:05:16;;;;;;;3.30;3.00;;;;;;;;;;5055305;28;20879;-81
2023/10/26 11:07:42;;;;;;;2.80;2.60;;;;;;;;;;5055105;28;20876;-81
2023/10/26 11:10:08;;;;;;;3.37;2.77;;;;;;;;;;5054489;28;20499;-80
2023/10/26 11:12:34;;;;;;;3.43;2.90;;;;;;;;;;5055821;28;20411;-80
2023/10/26 11:15:01;;;;;;;2.73;2.53;;;;;;;;;;5054604;28;20416;-80
2023/10/26 11:17:27;;;;;;;3.60;2.83;;;;;;;;;;5056096;28;20400;-81
2023/10/26 11:19:54;;;;;;;2.50;2.30;;;;;;;;;;5056303;28;20483;-80
2023/10/26 11:22:21;;;;;;;3.20;2.67;;;;;;;;;;5054538;28;20943;-79
2023/10/26 11:24:48;;;;;;;3.20;3.00;;;;;;;;;;5054585;28;20427;-80
2023/10/26 11:27:18;;;;;;;2.93;2.63;;;;;;;;;;5055984;28;20400;-80
2023/10/26 11:29:44;;;;;;;4.17;2.90;;;;;;;;;;5055985;28;20388;-80
2023/10/26 11:32:19;;;;;;;3.40;3.10;;;;;;;;;;5054521;28;20819;-80
2023/10/26 11:35:05;;;;;;;3.97;3.20;;;;;;;;;;5056052;28;20426;-80
2023/10/26 11:37:32;;;;;;;3.90;3.43;;;;;;;;;;5054373;28;20457;-79
2023/10/26 11:39:58;;;;;;;4.80;3.90;;;;;;;;;;5055550;28;20796;-80
2023/10/26 11:42:43;;;;;;;5.63;4.50;;;;;;;;;;5032466;28;20814;-80
2023/10/26 11:45:09;;;;;;;5.97;4.50;;;;;;;;;;5031495;28;20897;-80
2023/10/26 11:47:44;;;;;;;5.13;4.23;;;;;;;;;;5015962;28;20413;-80
2023/10/26 11:50:22;;;;;;;4.33;3.93;;;;;;;;;;5031955;28;20404;-80
2023/10/26 11:52:49;;;;;;;6.83;4.43;;;;;;;;;;5034635;28;20417;-80
2023/10/26 11:55:15;;;;;;;5.10;4.40;;;;;;;;;;5035510;28;20452;-80
2023/10/26 11:57:41;;;;;;;6.03;4.20;;;;;;;;;;5035300;28;20413;-80
2023/10/26 12:00:08;;;;;;;6.40;4.70;;;;;;;;;;5033869;28;20460;-79
2023/10/26 12:02:34;;;;;;;5.23;4.50;;;;;;;;;;5035441;28;20567;-80
2023/10/26 12:05:03;;;;;;;9.40;3.97;;;;;;;;;;5035338;28;20408;-80
2023/10/26 12:07:28;;;;;;;5.40;4.80;;;;;;;;;;5034113;28;20445;-80
2023/10/26 12:09:55;;;;;;;5.63;3.83;;;;;;;;;;5017345;28;20822;-80
2023/10/26 12:12:20;;;;;;;5.10;4.30;;;;;;;;;;5033567;28;20499;-80
2023/10/26 12:14:47;;;;;;;4.73;4.33;;;;;;;;;;5034935;28;20435;-80
2023/10/26 12:17:13;;;;;;;5.07;4.20;;;;;;;;;;5033817;28;20408;-79
2023/10/26 12:19:39;;;;;;;5.07;4.57;;;;;;;;;;5035134;28;20412;-80
2023/10/26 12:22:05;;;;;;;5.40;4.90;;;;;;;;;;5033265;28;20460;-80
2023/10/26 12:24:32;;;;;;;4.83;4.40;;;;;;;;;;5017316;28;20897;-80
2023/10/26 12:26:59;;;;;;;4.80;4.40;;;;;;;;;;5033268;28;20425;-80
2023/10/26 12:29:25;;;;;;;7.80;4.73;;;;;;;;;;5033769;28;20433;-80
2023/10/26 12:31:51;;;;;;;5.00;4.50;;;;;;;;;;5035264;28;20774;-80
2023/10/26 12:34:19;;;;;;;4.53;4.10;;;;;;;;;;5034975;28;20877;-80
2023/10/26 12:36:45;;;;;;;6.17;5.10;;;;;;;;;;5033447;28;20460;-80
2023/10/26 12:39:11;;;;;;;4.13;3.83;;;;;;;;;;5034502;28;20494;-80
2023/10/26 12:41:37;;;;;;;4.50;4.10;;;;;;;;;;5033235;28;20515;-80
2023/10/26 12:44:03;;;;;;;4.33;3.40;;;;;;;;;;5043668;28;20408;-79
2023/10/26 12:46:29;;;;;;;3.90;3.50;;;;;;;;;;5054450;28;20404;-80
2023/10/26 12:48:55;;;;;;;3.97;3.60;;;;;;;;;;5049329;28;20420;-80
2023/10/26 12:51:21;;;;;;;3.83;3.47;;;;;;;;;;5034324;28;20416;-80
2023/10/26 12:53:47;;;;;;;3.97;3.67;;;;;;;;;;5034152;28;20409;-80
2023/10/26 12:56:13;;;;;;;4.50;3.80;;;;;;;;;;5033021;28;20571;-79
2023/10/26 12:58:39;;;;;;;6.97;3.80;;;;;;;;;;5034473;28;20405;-80
2023/10/26 13:01:05;;;;;;;4.23;3.60;;;;;;;;;;5033653;28;20487;-80
2023/10/26 13:03:31;;;;;;;8.40;3.70;;;;;;;;;;5033193;28;20504;-80
2023/10/26 13:05:57;;;;;;;3.90;3.50;;;;;;;;;;5034356;28;20873;-81
2023/10/26 13:08:23;;;;;;;6.67;3.90;;;;;;;;;;5032963;28;20428;-81
2023/10/26 13:10:50;;;;;;;7.50;4.30;;;;;;;;;;5032787;28;20444;-81
2023/10/26 13:13:16;;;;;;;4.13;3.47;;;;;;;;;;5032877;28;20409;-81
2023/10/26 13:15:42;;;;;;;4.67;3.83;;;;;;;;;;5022847;28;20729;-80
2023/10/26 13:18:08;;;;;;;3.90;2.90;;;;;;;;;;5052426;28;20832;-80
2023/10/26 13:20:34;;;;;;;3.33;2.97;;;;;;;;;;5054160;28;20396;-78
2023/10/26 13:23:00;;;;;;;2.47;2.27;;;;;;;;;;5054195;28;20455;-79
2023/10/26 13:25:26;;;;;;;3.00;2.70;;;;;;;;;;5053428;28;20415;-80
2023/10/26 13:27:52;;;;;;;3.00;2.80;;;;;;;;;;5052776;28;20767;-81
2023/10/26 13:30:18;;;;;;;3.10;2.70;;;;;;;;;;5053551;28;20420;-81
2023/10/26 13:32:44;;;;;;;3.67;3.37;;;;;;;;;;5053707;28;20549;-79
2023/10/26 13:35:11;;;;;;;3.80;3.50;;;;;;;;;;5052493;28;20400;-80
2023/10/26 13:37:37;;;;;;;6.17;3.87;;;;;;;;;;5052702;28;20408;-81
2023/10/26 13:40:04;;;;;;;6.43;3.57;;;;;;;;;;5053465;28;20744;-80
2023/10/26 13:42:30;;;;;;;4.17;3.63;;;;;;;;;;5036251;28;20947;-80
2023/10/26 13:44:56;;;;;;;3.53;3.23;;;;;;;;;;5051645;28;20767;-80
2023/10/26 13:47:22;;;;;;;4.07;3.60;;;;;;;;;;5032660;28;20412;-80
2023/10/26 13:49:48;;;;;;;3.97;3.57;;;;;;;;;;5032987;28;20884;-80
2023/10/26 13:52:15;;;;;;;3.50;2.63;;;;;;;;;;5031864;28;20515;-80
2023/10/26 13:54:41;;;;;;;3.50;2.87;;;;;;;;;;5032029;28;20432;-80
2023/10/26 13:57:07;;;;;;;3.10;2.80;;;;;;;;;;5031908;28;20424;-81
2023/10/26 13:59:37;;;;;;;5.00;2.50;;;;;;;;;;5032346;28;20456;-81
2023/10/26 14:02:03;;;;;;;4.33;3.07;;;;;;;;;;5035577;28;20988;-79
2023/10/26 14:04:31;;;;;;;4.57;3.30;;;;;;;;;;5037293;28;20421;-80
2023/10/26 14:06:57;;;;;;;4.00;2.83;;;;;;;;;;5037214;28;20459;-80
2023/10/26 14:09:24;;;;;;;3.30;3.00;;;;;;;;;;5035417;28;20770;-80
2023/10/26 14:11:50;;;;;;;3.33;2.77;;;;;;;;;;5037321;28;20424;-79
2023/10/26 14:14:16;;;;;;;3.77;3.10;;;;;;;;;;5040399;28;20412;-79
2023/10/26 14:16:41;;;;;;;6.50;2.70;;;;;;;;;;5044446;28;20759;-79
2023/10/26 14:19:08;;;;;;;2.93;2.30;;;;;;;;;;5036043;28;20424;-79
2023/10/26 14:21:35;;;;;;;2.77;2.57;;;;;;;;;;5037605;28;20468;-79